sensor_id;sensor_type;location;lat;lon;timestamp;pressure;altitude;pressure_sealevel;temperature;humidity
65557;BME280;52200;53.490;14.376;2023-11-21T00:01:25;100789.91;;;4.72;90.89
65557;BME280;52200;53.490;14.376;2023-11-21T00:03:51;100795.75;;;4.83;90.00
65557;BME280;52200;53.490;14.376;2023-11-21T00:06:19;100797.44;;;4.86;90.00
65557;BME280;52200;53.490;14.376;2023-11-21T00:08:46;100795.81;;;4.63;89.18
65557;BME280;52200;53.490;14.376;2023-11-21T00:11:11;100797.47;;;4.39;90.42
65557;BME280;52200;53.490;14.376;2023-11-21T00:13:37;100800.00;;;4.47;90.58
65557;BME280;52200;53.490;14.376;2023-11-21T00:16:03;100809.22;;;4.62;89.90
65557;BME280;52200;53.490;14.376;2023-11-21T00:18:29;100807.53;;;4.67;91.04
65557;BME280;52200;53.490;14.376;2023-11-21T00:20:55;100797.47;;;4.72;90.22
65557;BME280;52200;53.490;14.376;2023-11-21T00:23:20;100805.00;;;4.75;90.01
65557;BME280;52200;53.490;14.376;2023-11-21T00:25:46;100811.72;;;4.65;90.48
65557;BME280;52200;53.490;14.376;2023-11-21T00:28:11;100815.91;;;4.69;90.41
65557;BME280;52200;53.490;14.376;2023-11-21T00:30:36;100820.13;;;4.53;89.93
65557;BME280;52200;53.490;14.376;2023-11-21T00:33:02;100827.63;;;4.25;90.75
65557;BME280;52200;53.490;14.376;2023-11-21T00:35:27;100828.50;;;4.19;91.37
65557;BME280;52200;53.490;14.376;2023-11-21T00:37:53;100821.78;;;4.26;91.36
65557;BME280;52200;53.490;14.376;2023-11-21T00:40:18;100832.69;;;4.30;91.52
65557;BME280;52200;53.490;14.376;2023-11-21T00:42:47;100835.16;;;4.14;91.15
65557;BME280;52200;53.490;14.376;2023-11-21T00:45:12;100842.72;;;4.16;90.84
65557;BME280;52200;53.490;14.376;2023-11-21T00:47:38;100853.63;;;4.19;90.47
65557;BME280;52200;53.490;14.376;2023-11-21T00:50:04;100858.66;;;4.35;90.80
65557;BME280;52200;53.490;14.376;2023-11-21T00:52:31;100851.09;;;4.10;90.92
65557;BME280;52200;53.490;14.376;2023-11-21T00:54:57;100853.56;;;3.98;91.43
65557;BME280;52200;53.490;14.376;2023-11-21T00:57:25;100861.97;;;4.11;91.32
65557;BME280;52200;53.490;14.376;2023-11-21T00:59:51;100858.63;;;4.16;90.96
65557;BME280;52200;53.490;14.376;2023-11-21T01:02:16;100864.44;;;3.91;91.59
65557;BME280;52200;53.490;14.376;2023-11-21T01:04:42;100868.66;;;4.04;91.78
65557;BME280;52200;53.490;14.376;2023-11-21T01:07:07;100866.19;;;4.19;91.38
65557;BME280;52200;53.490;14.376;2023-11-21T01:09:33;100874.53;;;4.03;90.71
65557;BME280;52200;53.490;14.376;2023-11-21T01:11:58;100871.16;;;3.98;90.50
65557;BME280;52200;53.490;14.376;2023-11-21T01:14:25;100877.84;;;3.96;91.33
65557;BME280;52200;53.490;14.376;2023-11-21T01:16:52;100876.19;;;3.98;91.06
65557;BME280;52200;53.490;14.376;2023-11-21T01:19:17;100882.91;;;4.02;90.96
65557;BME280;52200;53.490;14.376;2023-11-21T01:21:42;100886.22;;;3.90;90.96
65557;BME280;52200;53.490;14.376;2023-11-21T01:24:08;100877.03;;;3.94;90.67
65557;BME280;52200;53.490;14.376;2023-11-21T01:26:33;100881.25;;;4.10;90.79
65557;BME280;52200;53.490;14.376;2023-11-21T01:28:59;100882.94;;;4.14;90.20
65557;BME280;52200;53.490;14.376;2023-11-21T01:31:24;100887.13;;;4.08;90.22
65557;BME280;52200;53.490;14.376;2023-11-21T01:33:54;100877.84;;;3.94;90.33
65557;BME280;52200;53.490;14.376;2023-11-21T01:36:20;100881.16;;;3.82;90.75
65557;BME280;52200;53.490;14.376;2023-11-21T01:38:46;100891.22;;;3.79;90.90
65557;BME280;52200;53.490;14.376;2023-11-21T01:41:13;100886.13;;;3.70;91.42
65557;BME280;52200;53.490;14.376;2023-11-21T01:43:39;100890.34;;;3.74;91.02
65557;BME280;52200;53.490;14.376;2023-11-21T01:46:05;100888.66;;;3.67;91.06
65557;BME280;52200;53.490;14.376;2023-11-21T01:48:31;100887.72;;;3.52;91.49
65557;BME280;52200;53.490;14.376;2023-11-21T01:50:58;100892.84;;;3.71;91.91
65557;BME280;52200;53.490;14.376;2023-11-21T01:53:26;100891.16;;;3.67;91.61
65557;BME280;52200;53.490;14.376;2023-11-21T01:55:55;100898.63;;;3.56;92.71
65557;BME280;52200;53.490;14.376;2023-11-21T01:58:21;100901.16;;;3.58;92.36
65557;BME280;52200;53.490;14.376;2023-11-21T02:00:47;100902.88;;;3.62;92.61
65557;BME280;52200;53.490;14.376;2023-11-21T02:03:16;100895.25;;;3.52;91.70
65557;BME280;52200;53.490;14.376;2023-11-21T02:05:41;100896.97;;;3.57;92.01
65557;BME280;52200;53.490;14.376;2023-11-21T02:08:07;100892.81;;;3.65;91.66
65557;BME280;52200;53.490;14.376;2023-11-21T02:10:34;100893.72;;;3.79;92.17
65557;BME280;52200;53.490;14.376;2023-11-21T02:13:02;100895.41;;;3.79;91.12
65557;BME280;52200;53.490;14.376;2023-11-21T02:15:28;100902.16;;;3.94;90.78
65557;BME280;52200;53.490;14.376;2023-11-21T02:17:54;100906.25;;;3.75;90.78
65557;BME280;52200;53.490;14.376;2023-11-21T02:20:23;100908.78;;;3.71;91.20
65557;BME280;52200;53.490;14.376;2023-11-21T02:22:56;100912.88;;;3.57;91.06
65557;BME280;52200;53.490;14.376;2023-11-21T02:25:29;100913.78;;;3.73;91.79
65557;BME280;52200;53.490;14.376;2023-11-21T02:27:59;100919.72;;;3.81;91.03
65557;BME280;52200;53.490;14.376;2023-11-21T02:30:25;100917.16;;;3.80;90.55
65557;BME280;52200;53.490;14.376;2023-11-21T02:32:51;100921.31;;;3.67;91.48
65557;BME280;52200;53.490;14.376;2023-11-21T02:35:22;100924.69;;;3.77;91.41
65557;BME280;52200;53.490;14.376;2023-11-21T02:37:48;100928.09;;;3.86;90.36
65557;BME280;52200;53.490;14.376;2023-11-21T02:40:13;100914.66;;;3.75;90.77
65557;BME280;52200;53.490;14.376;2023-11-21T02:42:45;100924.66;;;3.67;90.97
65557;BME280;52200;53.490;14.376;2023-11-21T02:45:13;100923.81;;;3.70;91.70
65557;BME280;52200;53.490;14.376;2023-11-21T02:47:39;100923.91;;;3.84;91.50
65557;BME280;52200;53.490;14.376;2023-11-21T02:50:05;100917.22;;;3.89;91.07
65557;BME280;52200;53.490;14.376;2023-11-21T02:52:33;100920.53;;;3.79;90.80
65557;BME280;52200;53.490;14.376;2023-11-21T02:54:59;100927.25;;;3.81;90.29
65557;BME280;52200;53.490;14.376;2023-11-21T02:57:24;100919.69;;;3.75;91.24
65557;BME280;52200;53.490;14.376;2023-11-21T02:59:49;100929.75;;;3.84;90.92
65557;BME280;52200;53.490;14.376;2023-11-21T03:02:15;100925.50;;;3.66;90.79
65557;BME280;52200;53.490;14.376;2023-11-21T03:04:40;100929.59;;;3.53;91.26
65557;BME280;52200;53.490;14.376;2023-11-21T03:07:08;100932.91;;;3.46;92.38
65557;BME280;52200;53.490;14.376;2023-11-21T03:09:34;100917.91;;;3.59;91.52
65557;BME280;52200;53.490;14.376;2023-11-21T03:12:00;100938.00;;;3.59;91.67
65557;BME280;52200;53.490;14.376;2023-11-21T03:14:25;100927.88;;;3.46;91.94
65557;BME280;52200;53.490;14.376;2023-11-21T03:16:50;100943.03;;;3.57;92.60
65557;BME280;52200;53.490;14.376;2023-11-21T03:19:16;100942.16;;;3.55;92.44
65557;BME280;52200;53.490;14.376;2023-11-21T03:21:42;100940.56;;;3.69;91.73
65557;BME280;52200;53.490;14.376;2023-11-21T03:24:07;100943.97;;;3.82;90.71
65557;BME280;52200;53.490;14.376;2023-11-21T03:26:33;100935.44;;;3.49;92.26
65557;BME280;52200;53.490;14.376;2023-11-21T03:28:58;100958.13;;;3.65;92.23
65557;BME280;52200;53.490;14.376;2023-11-21T03:31:24;100952.22;;;3.55;92.14
65557;BME280;52200;53.490;14.376;2023-11-21T03:33:49;100954.75;;;3.57;91.83
65557;BME280;52200;53.490;14.376;2023-11-21T03:36:14;100941.34;;;3.56;92.11
65557;BME280;52200;53.490;14.376;2023-11-21T03:38:40;100964.06;;;3.82;91.96
65557;BME280;52200;53.490;14.376;2023-11-21T03:41:07;100961.56;;;3.79;91.19
65557;BME280;52200;53.490;14.376;2023-11-21T03:43:33;100968.22;;;3.68;92.15
65557;BME280;52200;53.490;14.376;2023-11-21T03:45:58;100965.63;;;3.59;91.99
65557;BME280;52200;53.490;14.376;2023-11-21T03:48:23;100959.78;;;3.57;91.68
65557;BME280;52200;53.490;14.376;2023-11-21T03:50:49;100966.53;;;3.65;91.69
65557;BME280;52200;53.490;14.376;2023-11-21T03:53:14;100978.16;;;3.51;92.50
65557;BME280;52200;53.490;14.376;2023-11-21T03:55:39;100973.13;;;3.51;92.20
65557;BME280;52200;53.490;14.376;2023-11-21T03:58:05;100979.81;;;3.50;92.47
65557;BME280;52200;53.490;14.376;2023-11-21T04:00:31;100983.94;;;3.42;92.21
65557;BME280;52200;53.490;14.376;2023-11-21T04:02:56;100989.00;;;3.47;92.61
65557;BME280;52200;53.490;14.376;2023-11-21T04:05:21;100996.63;;;3.64;91.96
65557;BME280;52200;53.490;14.376;2023-11-21T04:07:50;100999.97;;;3.61;91.76
65557;BME280;52200;53.490;14.376;2023-11-21T04:10:19;101006.66;;;3.58;91.50
65557;BME280;52200;53.490;14.376;2023-11-21T04:12:45;101008.16;;;3.31;92.40
65557;BME280;52200;53.490;14.376;2023-11-21T04:15:10;101012.41;;;3.41;93.00
65557;BME280;52200;53.490;14.376;2023-11-21T04:17:37;101018.31;;;3.48;92.68
65557;BME280;52200;53.490;14.376;2023-11-21T04:20:04;101015.66;;;3.29;93.29
65557;BME280;52200;53.490;14.376;2023-11-21T04:22:33;101013.97;;;3.28;94.10
65557;BME280;52200;53.490;14.376;2023-11-21T04:24:58;101017.38;;;3.35;93.50
65557;BME280;52200;53.490;14.376;2023-11-21T04:27:24;101026.50;;;3.23;94.34
65557;BME280;52200;53.490;14.376;2023-11-21T04:29:49;101020.84;;;3.48;94.18
65557;BME280;52200;53.490;14.376;2023-11-21T04:32:15;101030.84;;;3.45;93.54
65557;BME280;52200;53.490;14.376;2023-11-21T04:34:41;101031.75;;;3.53;93.88
65557;BME280;52200;53.490;14.376;2023-11-21T04:37:06;101034.34;;;3.68;93.24
65557;BME280;52200;53.490;14.376;2023-11-21T04:39:32;101035.22;;;3.69;93.37
65557;BME280;52200;53.490;14.376;2023-11-21T04:41:57;101051.81;;;3.48;93.25
65557;BME280;52200;53.490;14.376;2023-11-21T04:44:22;101055.13;;;3.44;93.92
65557;BME280;52200;53.490;14.376;2023-11-21T04:46:48;101057.44;;;3.19;94.63
65557;BME280;52200;53.490;14.376;2023-11-21T04:49:14;101061.59;;;3.20;94.13
65557;BME280;52200;53.490;14.376;2023-11-21T04:51:39;101070.03;;;3.26;95.10
65557;BME280;52200;53.490;14.376;2023-11-21T04:54:05;101061.53;;;3.14;95.54
65557;BME280;52200;53.490;14.376;2023-11-21T04:56:31;101061.59;;;3.19;95.28
65557;BME280;52200;53.490;14.376;2023-11-21T04:58:56;101076.69;;;3.23;95.52
65557;BME280;52200;53.490;14.376;2023-11-21T05:01:21;101066.56;;;3.14;96.38
65557;BME280;52200;53.490;14.376;2023-11-21T05:03:47;101071.63;;;3.17;95.63
65557;BME280;52200;53.490;14.376;2023-11-21T05:06:14;101082.47;;;3.15;95.61
65557;BME280;52200;53.490;14.376;2023-11-21T05:08:39;101081.53;;;3.05;96.46
65557;BME280;52200;53.490;14.376;2023-11-21T05:11:05;101071.50;;;3.05;96.75
65557;BME280;52200;53.490;14.376;2023-11-21T05:13:34;101089.25;;;3.22;96.35
65557;BME280;52200;53.490;14.376;2023-11-21T05:15:59;101096.84;;;3.33;95.77
65557;BME280;52200;53.490;14.376;2023-11-21T05:18:25;101097.72;;;3.35;95.89
65557;BME280;52200;53.490;14.376;2023-11-21T05:20:55;101081.63;;;3.14;96.10
65557;BME280;52200;53.490;14.376;2023-11-21T05:23:21;101101.81;;;3.22;96.18
65557;BME280;52200;53.490;14.376;2023-11-21T05:25:46;101102.69;;;3.29;95.90
65557;BME280;52200;53.490;14.376;2023-11-21T05:28:12;101103.44;;;3.18;96.44
65557;BME280;52200;53.490;14.376;2023-11-21T05:30:37;101108.34;;;3.08;96.65
65557;BME280;52200;53.490;14.376;2023-11-21T05:33:06;101108.34;;;3.06;96.31
65557;BME280;52200;53.490;14.376;2023-11-21T05:35:31;101121.78;;;3.11;96.91
65557;BME280;52200;53.490;14.376;2023-11-21T05:37:56;101120.00;;;3.02;96.85
65557;BME280;52200;53.490;14.376;2023-11-21T05:40:22;101121.78;;;3.14;96.45
65557;BME280;52200;53.490;14.376;2023-11-21T05:42:47;101120.00;;;3.01;96.95
65557;BME280;52200;53.490;14.376;2023-11-21T05:45:13;101121.44;;;2.82;97.11
65557;BME280;52200;53.490;14.376;2023-11-21T05:47:44;101129.69;;;2.70;97.54
65557;BME280;52200;53.490;14.376;2023-11-21T05:50:12;101133.91;;;2.76;97.86
65557;BME280;52200;53.490;14.376;2023-11-21T05:52:43;101134.13;;;2.93;97.77
65557;BME280;52200;53.490;14.376;2023-11-21T05:55:09;101143.19;;;2.80;97.38
65557;BME280;52200;53.490;14.376;2023-11-21T05:57:35;101152.22;;;2.68;97.55
65557;BME280;52200;53.490;14.376;2023-11-21T06:00:06;101138.53;;;2.46;98.80
65557;BME280;52200;53.490;14.376;2023-11-21T06:02:51;101150.34;;;2.55;98.32
65557;BME280;52200;53.490;14.376;2023-11-21T06:05:19;101148.56;;;2.46;98.54
65557;BME280;52200;53.490;14.376;2023-11-21T06:07:45;101159.47;;;2.48;99.38
65557;BME280;52200;53.490;14.376;2023-11-21T06:10:12;101161.97;;;2.45;99.03
65557;BME280;52200;53.490;14.376;2023-11-21T06:12:39;101171.94;;;2.42;99.45
65557;BME280;52200;53.490;14.376;2023-11-21T06:15:06;101169.59;;;2.54;99.64
65557;BME280;52200;53.490;14.376;2023-11-21T06:17:38;101172.84;;;2.49;99.61
65557;BME280;52200;53.490;14.376;2023-11-21T06:20:05;101175.34;;;2.49;99.17
65557;BME280;52200;53.490;14.376;2023-11-21T06:22:38;101180.06;;;2.27;99.28
65557;BME280;52200;53.490;14.376;2023-11-21T06:25:05;101184.16;;;2.20;100.00
65557;BME280;52200;53.490;14.376;2023-11-21T06:27:38;101192.59;;;2.27;100.00
65557;BME280;52200;53.490;14.376;2023-11-21T06:30:04;101195.91;;;2.23;100.00
65557;BME280;52200;53.490;14.376;2023-11-21T06:32:30;101211.84;;;2.28;100.00
65557;BME280;52200;53.490;14.376;2023-11-21T06:34:56;101205.06;;;2.22;100.00
65557;BME280;52200;53.490;14.376;2023-11-21T06:37:25;101213.59;;;2.34;100.00
65557;BME280;52200;53.490;14.376;2023-11-21T06:39:50;101225.28;;;2.33;99.99
65557;BME280;52200;53.490;14.376;2023-11-21T06:42:17;101218.66;;;2.37;99.98
65557;BME280;52200;53.490;14.376;2023-11-21T06:44:45;101225.19;;;2.25;100.00
65557;BME280;52200;53.490;14.376;2023-11-21T06:47:10;101231.28;;;2.41;100.00
65557;BME280;52200;53.490;14.376;2023-11-21T06:49:36;101227.69;;;2.25;99.96
65557;BME280;52200;53.490;14.376;2023-11-21T06:52:01;101225.19;;;2.27;100.00
65557;BME280;52200;53.490;14.376;2023-11-21T06:54:28;101227.09;;;2.42;99.27
65557;BME280;52200;53.490;14.376;2023-11-21T06:56:54;101222.88;;;2.41;99.04
65557;BME280;52200;53.490;14.376;2023-11-21T06:59:22;101232.81;;;2.33;99.14
65557;BME280;52200;53.490;14.376;2023-11-21T07:01:47;101233.78;;;2.41;99.06
65557;BME280;52200;53.490;14.376;2023-11-21T07:04:13;101237.94;;;2.42;99.25
65557;BME280;52200;53.490;14.376;2023-11-21T07:06:38;101237.09;;;2.40;98.58
65557;BME280;52200;53.490;14.376;2023-11-21T07:09:03;101242.41;;;2.61;98.66
65557;BME280;52200;53.490;14.376;2023-11-21T07:11:29;101243.38;;;2.69;98.13
65557;BME280;52200;53.490;14.376;2023-11-21T07:13:54;101237.31;;;2.54;98.01
65557;BME280;52200;53.490;14.376;2023-11-21T07:16:20;101251.66;;;2.65;97.38
65557;BME280;52200;53.490;14.376;2023-11-21T07:18:46;101239.81;;;2.54;97.61
65557;BME280;52200;53.490;14.376;2023-11-21T07:21:11;101248.16;;;2.53;97.12
65557;BME280;52200;53.490;14.376;2023-11-21T07:23:37;101268.22;;;2.55;97.38
65557;BME280;52200;53.490;14.376;2023-11-21T07:26:03;101258.34;;;2.66;97.78
65557;BME280;52200;53.490;14.376;2023-11-21T07:28:34;101255.84;;;2.64;96.95
65557;BME280;52200;53.490;14.376;2023-11-21T07:30:59;101253.16;;;2.53;97.09
65557;BME280;52200;53.490;14.376;2023-11-21T07:33:25;101269.25;;;2.66;96.45
65557;BME280;52200;53.490;14.376;2023-11-21T07:35:50;101263.88;;;2.41;97.41
65557;BME280;52200;53.490;14.376;2023-11-21T07:38:17;101249.63;;;2.39;97.53
65557;BME280;52200;53.490;14.376;2023-11-21T07:40:43;101269.88;;;2.53;97.23
65557;BME280;52200;53.490;14.376;2023-11-21T07:43:08;101270.09;;;2.67;97.60
65557;BME280;52200;53.490;14.376;2023-11-21T07:45:34;101276.50;;;2.49;96.52
65557;BME280;52200;53.490;14.376;2023-11-21T07:47:59;101276.31;;;2.37;96.84
65557;BME280;52200;53.490;14.376;2023-11-21T07:50:28;101281.66;;;2.58;97.17
65557;BME280;52200;53.490;14.376;2023-11-21T07:52:54;101292.47;;;2.53;96.40
65557;BME280;52200;53.490;14.376;2023-11-21T07:55:19;101287.53;;;2.59;96.51
65557;BME280;52200;53.490;14.376;2023-11-21T07:57:45;101294.09;;;2.51;96.96
65557;BME280;52200;53.490;14.376;2023-11-21T08:00:11;101297.47;;;2.53;96.56
65557;BME280;52200;53.490;14.376;2023-11-21T08:02:40;101298.63;;;2.21;96.72
65557;BME280;52200;53.490;14.376;2023-11-21T08:05:12;101301.00;;;2.14;98.10
65557;BME280;52200;53.490;14.376;2023-11-21T08:07:38;101299.91;;;1.99;98.66
65557;BME280;52200;53.490;14.376;2023-11-21T08:10:04;101298.44;;;2.11;98.68
65557;BME280;52200;53.490;14.376;2023-11-21T08:12:30;101307.00;;;2.22;98.16
65557;BME280;52200;53.490;14.376;2023-11-21T08:14:56;101299.47;;;2.20;98.39
65557;BME280;52200;53.490;14.376;2023-11-21T08:17:21;101317.84;;;2.22;97.60
65557;BME280;52200;53.490;14.376;2023-11-21T08:19:47;101310.28;;;2.19;97.52
65557;BME280;52200;53.490;14.376;2023-11-21T08:22:15;101319.97;;;2.48;97.51
65557;BME280;52200;53.490;14.376;2023-11-21T08:24:43;101323.72;;;2.23;96.69
65557;BME280;52200;53.490;14.376;2023-11-21T08:27:08;101330.56;;;2.32;96.99
65557;BME280;52200;53.490;14.376;2023-11-21T08:29:34;101308.63;;;2.20;96.77
65557;BME280;52200;53.490;14.376;2023-11-21T08:32:01;101321.84;;;2.11;96.87
65557;BME280;52200;53.490;14.376;2023-11-21T08:34:27;101348.25;;;1.93;96.48
65557;BME280;52200;53.490;14.376;2023-11-21T08:36:53;101343.16;;;1.90;96.56
65557;BME280;52200;53.490;14.376;2023-11-21T08:39:19;101342.34;;;1.91;96.56
65557;BME280;52200;53.490;14.376;2023-11-21T08:41:44;101361.63;;;1.94;95.33
65557;BME280;52200;53.490;14.376;2023-11-21T08:44:11;101363.84;;;1.80;95.80
65557;BME280;52200;53.490;14.376;2023-11-21T08:46:36;101366.13;;;1.69;95.88
65557;BME280;52200;53.490;14.376;2023-11-21T08:49:03;101381.00;;;1.61;96.23
65557;BME280;52200;53.490;14.376;2023-11-21T08:51:28;101391.44;;;1.82;95.89
65557;BME280;52200;53.490;14.376;2023-11-21T08:53:54;101385.63;;;1.84;95.09
65557;BME280;52200;53.490;14.376;2023-11-21T08:56:19;101391.91;;;1.64;95.05
65557;BME280;52200;53.490;14.376;2023-11-21T08:58:45;101400.63;;;1.81;95.26
65557;BME280;52200;53.490;14.376;2023-11-21T09:01:12;101398.03;;;1.78;94.53
65557;BME280;52200;53.490;14.376;2023-11-21T09:03:38;101405.81;;;1.90;94.62
65557;BME280;52200;53.490;14.376;2023-11-21T09:06:03;101412.09;;;1.70;94.02
65557;BME280;52200;53.490;14.376;2023-11-21T09:08:29;101414.38;;;1.60;93.39
65557;BME280;52200;53.490;14.376;2023-11-21T09:10:55;101422.81;;;1.64;93.79
65557;BME280;52200;53.490;14.376;2023-11-21T09:13:20;101418.66;;;1.65;92.83
65557;BME280;52200;53.490;14.376;2023-11-21T09:15:46;101417.34;;;1.82;92.75
65557;BME280;52200;53.490;14.376;2023-11-21T09:18:14;101429.09;;;1.86;92.49
65557;BME280;52200;53.490;14.376;2023-11-21T09:20:41;101420.56;;;1.78;91.58
65557;BME280;52200;53.490;14.376;2023-11-21T09:23:07;101438.81;;;1.71;90.73
65557;BME280;52200;53.490;14.376;2023-11-21T09:25:33;101442.22;;;1.74;91.30
65557;BME280;52200;53.490;14.376;2023-11-21T09:27:58;101439.72;;;1.74;91.72
65557;BME280;52200;53.490;14.376;2023-11-21T09:30:25;101438.75;;;1.68;91.21
65557;BME280;52200;53.490;14.376;2023-11-21T09:32:50;101446.88;;;1.57;91.30
65557;BME280;52200;53.490;14.376;2023-11-21T09:35:17;101463.34;;;1.86;90.70
65557;BME280;52200;53.490;14.376;2023-11-21T09:37:44;101473.19;;;1.78;89.37
65557;BME280;52200;53.490;14.376;2023-11-21T09:40:11;101473.94;;;1.74;89.63
65557;BME280;52200;53.490;14.376;2023-11-21T09:42:55;101467.31;;;1.76;89.23
65557;BME280;52200;53.490;14.376;2023-11-21T09:45:26;101474.78;;;1.74;89.43
65557;BME280;52200;53.490;14.376;2023-11-21T09:47:54;101474.75;;;1.73;87.76
65557;BME280;52200;53.490;14.376;2023-11-21T09:50:23;101484.50;;;1.60;87.36
65557;BME280;52200;53.490;14.376;2023-11-21T09:53:13;101486.50;;;1.75;86.89
65557;BME280;52200;53.490;14.376;2023-11-21T09:55:43;101485.91;;;1.86;86.20
65557;BME280;52200;53.490;14.376;2023-11-21T09:58:09;101485.88;;;2.25;86.64
65557;BME280;52200;53.490;14.376;2023-11-21T10:00:43;101484.31;;;2.31;84.73
65557;BME280;52200;53.490;14.376;2023-11-21T10:03:10;101480.22;;;2.36;83.99
65557;BME280;52200;53.490;14.376;2023-11-21T10:05:37;101489.44;;;2.37;83.98
65557;BME280;52200;53.490;14.376;2023-11-21T10:08:09;101486.41;;;2.55;82.19
65557;BME280;52200;53.490;14.376;2023-11-21T10:10:36;101486.94;;;2.37;81.37
65557;BME280;52200;53.490;14.376;2023-11-21T10:13:03;101486.97;;;2.40;81.90
65557;BME280;52200;53.490;14.376;2023-11-21T10:15:35;101481.34;;;2.52;81.69
65557;BME280;52200;53.490;14.376;2023-11-21T10:18:06;101488.75;;;2.44;80.94
65557;BME280;52200;53.490;14.376;2023-11-21T10:20:32;101493.22;;;2.61;80.69
65557;BME280;52200;53.490;14.376;2023-11-21T10:23:03;101496.94;;;2.35;81.00
65557;BME280;52200;53.490;14.376;2023-11-21T10:25:29;101497.66;;;2.31;80.85
65557;BME280;52200;53.490;14.376;2023-11-21T10:27:59;101499.56;;;2.41;80.54
65557;BME280;52200;53.490;14.376;2023-11-21T10:30:34;101505.00;;;2.20;78.78
65557;BME280;52200;53.490;14.376;2023-11-21T10:33:04;101512.13;;;2.02;79.17
65557;BME280;52200;53.490;14.376;2023-11-21T10:35:42;101507.94;;;2.01;80.06
65557;BME280;52200;53.490;14.376;2023-11-21T10:38:08;101514.56;;;1.99;79.62
65557;BME280;52200;53.490;14.376;2023-11-21T10:40:38;101512.22;;;2.06;80.29
65557;BME280;52200;53.490;14.376;2023-11-21T10:43:11;101512.94;;;2.01;78.70
65557;BME280;52200;53.490;14.376;2023-11-21T10:45:38;101524.84;;;2.11;79.43
65557;BME280;52200;53.490;14.376;2023-11-21T10:48:08;101529.16;;;2.18;79.29
65557;BME280;52200;53.490;14.376;2023-11-21T10:50:37;101528.53;;;2.29;78.21
65557;BME280;52200;53.490;14.376;2023-11-21T10:53:04;101539.84;;;2.51;79.15
65557;BME280;52200;53.490;14.376;2023-11-21T10:55:31;101544.88;;;2.52;78.52
65557;BME280;52200;53.490;14.376;2023-11-21T10:57:59;101540.50;;;2.42;77.75
65557;BME280;52200;53.490;14.376;2023-11-21T11:00:26;101536.94;;;2.31;77.81
65557;BME280;52200;53.490;14.376;2023-11-21T11:02:52;101543.03;;;2.02;76.86
65557;BME280;52200;53.490;14.376;2023-11-21T11:05:23;101549.59;;;1.96;76.71
65557;BME280;52200;53.490;14.376;2023-11-21T11:07:55;101551.13;;;1.90;77.51
65557;BME280;52200;53.490;14.376;2023-11-21T11:10:25;101554.59;;;1.96;76.97
65557;BME280;52200;53.490;14.376;2023-11-21T11:12:53;101557.41;;;2.09;76.35
65557;BME280;52200;53.490;14.376;2023-11-21T11:15:19;101552.63;;;1.82;77.24
65557;BME280;52200;53.490;14.376;2023-11-21T11:17:46;101562.59;;;1.81;77.16
65557;BME280;52200;53.490;14.376;2023-11-21T11:20:12;101564.47;;;1.54;77.23
65557;BME280;52200;53.490;14.376;2023-11-21T11:22:54;101549.41;;;1.51;76.67
65557;BME280;52200;53.490;14.376;2023-11-21T11:25:49;101558.00;;;1.63;77.54
65557;BME280;52200;53.490;14.376;2023-11-21T11:31:46;101575.22;;;2.23;77.49
65557;BME280;52200;53.490;14.376;2023-11-21T11:37:04;101575.31;;;2.68;74.65
65557;BME280;52200;53.490;14.376;2023-11-21T11:39:39;101566.78;;;3.05;74.92
65557;BME280;52200;53.490;14.376;2023-11-21T11:42:08;101570.22;;;3.09;74.59
65557;BME280;52200;53.490;14.376;2023-11-21T11:47:29;101580.66;;;2.85;73.38
65557;BME280;52200;53.490;14.376;2023-11-21T11:50:10;101584.88;;;2.45;73.34
65557;BME280;52200;53.490;14.376;2023-11-21T11:52:43;101588.91;;;2.38;74.38
65557;BME280;52200;53.490;14.376;2023-11-21T11:55:11;101603.28;;;2.45;74.33
65557;BME280;52200;53.490;14.376;2023-11-21T11:57:38;101602.19;;;2.34;73.89
65557;BME280;52200;53.490;14.376;2023-11-21T12:00:17;101603.03;;;2.33;73.53
65557;BME280;52200;53.490;14.376;2023-11-21T12:02:49;101599.47;;;2.23;73.38
65557;BME280;52200;53.490;14.376;2023-11-21T12:05:19;101608.44;;;2.53;73.42
65557;BME280;52200;53.490;14.376;2023-11-21T12:07:56;101608.22;;;2.42;73.31
65557;BME280;52200;53.490;14.376;2023-11-21T12:10:29;101613.06;;;2.34;72.61
65557;BME280;52200;53.490;14.376;2023-11-21T12:13:02;101612.34;;;2.40;73.46
65557;BME280;52200;53.490;14.376;2023-11-21T12:15:28;101606.63;;;2.46;72.91
65557;BME280;52200;53.490;14.376;2023-11-21T12:17:55;101607.53;;;2.49;73.45
65557;BME280;52200;53.490;14.376;2023-11-21T12:20:23;101615.69;;;2.39;72.81
65557;BME280;52200;53.490;14.376;2023-11-21T12:22:53;101609.03;;;2.41;73.80
65557;BME280;52200;53.490;14.376;2023-11-21T12:25:23;101626.44;;;2.35;72.75
65557;BME280;52200;53.490;14.376;2023-11-21T12:27:51;101628.53;;;2.53;73.45
65557;BME280;52200;53.490;14.376;2023-11-21T12:30:22;101634.59;;;2.64;72.89
65557;BME280;52200;53.490;14.376;2023-11-21T12:32:49;101651.13;;;2.54;73.37
65557;BME280;52200;53.490;14.376;2023-11-21T12:35:17;101640.81;;;2.42;73.07
65557;BME280;52200;53.490;14.376;2023-11-21T12:37:45;101644.09;;;2.38;73.02
65557;BME280;52200;53.490;14.376;2023-11-21T12:40:13;101644.28;;;2.47;73.09
65557;BME280;52200;53.490;14.376;2023-11-21T12:42:45;101642.56;;;2.46;72.87
65557;BME280;52200;53.490;14.376;2023-11-21T12:47:55;101648.19;;;2.34;72.79
65557;BME280;52200;53.490;14.376;2023-11-21T12:50:23;101652.13;;;2.24;73.83
65557;BME280;52200;53.490;14.376;2023-11-21T12:52:52;101645.66;;;2.33;73.90
65557;BME280;52200;53.490;14.376;2023-11-21T12:55:20;101660.75;;;2.36;73.09
65557;BME280;52200;53.490;14.376;2023-11-21T12:57:50;101665.25;;;2.51;73.17
65557;BME280;52200;53.490;14.376;2023-11-21T13:00:32;101667.66;;;2.08;73.54
65557;BME280;52200;53.490;14.376;2023-11-21T13:02:59;101674.06;;;2.33;72.87